SWA1148 KLAS-KDCA
Flight info
| Callsign | SWA1148 |
|---|---|
| Flight time | N/A |
| Altitude | 37000 |
| Route | GIDGT3 TUKRR CEZ HELPS ZAROS KIRKE KK51E VHP J80 BOWRR LUISE FRDMM6 |
| Aircraft | B38M/M-SADE2E3GHIJ4J7P2RWZ/LB1D1 |
Departure
| Time | 2026-04-30 20:32 |
|---|---|
| Airport | Harry Reid International Airport (KLAS) |
Arrival
| Time | N/A |
|---|---|
| Airport | Ronald Reagan Washington National Airport (KDCA) |
| Time | Latitude | Longitude | Altitude | Speed | Heading |
|---|---|---|---|---|---|
| 2026-04-30 20:14 | 36.07968 | -115.14624 | 2126 ft | 0 kts | 354° |
| 2026-04-30 20:23 | 36.07961 | -115.14624 | 2126 ft | 1 kts | 354° |
| 2026-04-30 20:23 | 36.07944 | -115.14621 | 2129 ft | 2 kts | 352° |
| 2026-04-30 20:23 | 36.07928 | -115.14618 | 2127 ft | 2 kts | 349° |
| 2026-04-30 20:23 | 36.07912 | -115.14614 | 2127 ft | 2 kts | 344° |
| 2026-04-30 20:24 | 36.07896 | -115.14607 | 2126 ft | 2 kts | 331° |
| 2026-04-30 20:24 | 36.07884 | -115.14593 | 2127 ft | 2 kts | 296° |
| 2026-04-30 20:24 | 36.07880 | -115.14576 | 2128 ft | 1 kts | 275° |
| 2026-04-30 20:24 | 36.07879 | -115.14569 | 2127 ft | 0 kts | 272° |
| 2026-04-30 20:28 | 36.07880 | -115.14582 | 2127 ft | 6 kts | 272° |
| 2026-04-30 20:28 | 36.07888 | -115.14879 | 2140 ft | 26 kts | 273° |
| 2026-04-30 20:29 | 36.07884 | -115.15269 | 2154 ft | 19 kts | 242° |
| 2026-04-30 20:30 | 36.07802 | -115.15692 | 2165 ft | 27 kts | 269° |
| 2026-04-30 20:30 | 36.07751 | -115.16340 | 2171 ft | 21 kts | 216° |
| 2026-04-30 20:31 | 36.07640 | -115.15392 | 2156 ft | 124 kts | 90° |
| 2026-04-30 20:32 | 36.07650 | -115.10671 | 3666 ft | 207 kts | 87° |
| 2026-04-30 20:32 | 36.07621 | -115.06947 | 5258 ft | 233 kts | 88° |
| 2026-04-30 20:33 | 36.07612 | -115.04857 | 5874 ft | 251 kts | 88° |
| 2026-04-30 20:33 | 36.07598 | -115.00445 | 7537 ft | 268 kts | 87° |
| 2026-04-30 20:33 | 36.07592 | -114.98068 | 8168 ft | 284 kts | 86° |
| 2026-04-30 20:34 | 36.07576 | -114.93125 | 9975 ft | 294 kts | 87° |
| 2026-04-30 20:34 | 36.07554 | -114.87902 | 11156 ft | 322 kts | 88° |
| 2026-04-30 20:35 | 36.07540 | -114.85067 | 11718 ft | 336 kts | 87° |
| 2026-04-30 20:35 | 36.07534 | -114.82149 | 12442 ft | 341 kts | 85° |
| 2026-04-30 20:35 | 36.08587 | -114.76435 | 13919 ft | 347 kts | 72° |
| 2026-04-30 20:36 | 36.09192 | -114.73540 | 13888 ft | 346 kts | 73° |
| 2026-04-30 20:36 | 36.09792 | -114.70663 | 13907 ft | 345 kts | 73° |
| 2026-04-30 20:36 | 36.10999 | -114.64897 | 14131 ft | 352 kts | 73° |
| 2026-04-30 20:37 | 36.11606 | -114.61989 | 15030 ft | 348 kts | 73° |
| 2026-04-30 20:37 | 36.12217 | -114.59067 | 15705 ft | 354 kts | 73° |
| 2026-04-30 20:37 | 36.12843 | -114.56063 | 16224 ft | 362 kts | 73° |
| 2026-04-30 20:37 | 36.13475 | -114.53018 | 16973 ft | 364 kts | 73° |
| 2026-04-30 20:38 | 36.14113 | -114.49953 | 17479 ft | 372 kts | 73° |
| 2026-04-30 20:38 | 36.14755 | -114.46843 | 18162 ft | 374 kts | 73° |
| 2026-04-30 20:38 | 36.15395 | -114.43728 | 18653 ft | 380 kts | 73° |
| 2026-04-30 20:39 | 36.16706 | -114.37340 | 19817 ft | 383 kts | 73° |
| 2026-04-30 20:39 | 36.17365 | -114.34125 | 20332 ft | 387 kts | 72° |
| 2026-04-30 20:39 | 36.18028 | -114.30884 | 20884 ft | 389 kts | 72° |
| 2026-04-30 20:40 | 36.19353 | -114.24348 | 21974 ft | 394 kts | 74° |
| 2026-04-30 20:40 | 36.19754 | -114.20955 | 22446 ft | 401 kts | 80° |
| 2026-04-30 20:40 | 36.20102 | -114.17531 | 23013 ft | 402 kts | 77° |
| 2026-04-30 20:41 | 36.20915 | -114.10676 | 23897 ft | 407 kts | 77° |
| 2026-04-30 20:41 | 36.21335 | -114.07188 | 24208 ft | 413 kts | 77° |
| 2026-04-30 20:41 | 36.21757 | -114.03665 | 24655 ft | 413 kts | 78° |
| 2026-04-30 20:41 | 36.22181 | -114.00133 | 25066 ft | 417 kts | 78° |
| 2026-04-30 20:42 | 36.22609 | -113.96560 | 25350 ft | 422 kts | 78° |
| 2026-04-30 20:42 | 36.23037 | -113.92964 | 25810 ft | 423 kts | 78° |
| 2026-04-30 20:42 | 36.23902 | -113.85686 | 26513 ft | 430 kts | 78° |
| 2026-04-30 20:43 | 36.24338 | -113.81999 | 26873 ft | 433 kts | 79° |
| 2026-04-30 20:43 | 36.24775 | -113.78289 | 27193 ft | 437 kts | 79° |
| 2026-04-30 20:43 | 36.25215 | -113.74547 | 27561 ft | 439 kts | 79° |
| 2026-04-30 20:44 | 36.26098 | -113.67012 | 28229 ft | 446 kts | 79° |
| 2026-04-30 20:44 | 36.26544 | -113.63194 | 28572 ft | 448 kts | 79° |
| 2026-04-30 20:44 | 36.27437 | -113.55503 | 29208 ft | 454 kts | 79° |
| 2026-04-30 20:45 | 36.28336 | -113.47722 | 29850 ft | 459 kts | 80° |
| 2026-04-30 20:45 | 36.28788 | -113.43789 | 30132 ft | 462 kts | 80° |
| 2026-04-30 20:45 | 36.29241 | -113.39840 | 30392 ft | 464 kts | 80° |
| 2026-04-30 20:46 | 36.30600 | -113.27919 | 31193 ft | 470 kts | 80° |
| 2026-04-30 20:46 | 36.31068 | -113.23906 | 31462 ft | 471 kts | 78° |
| 2026-04-30 20:47 | 36.33320 | -113.16356 | 32061 ft | 465 kts | 57° |
| 2026-04-30 20:47 | 36.34921 | -113.12864 | 32338 ft | 468 kts | 60° |
| 2026-04-30 20:48 | 36.37303 | -113.05192 | 32581 ft | 479 kts | 69° |
| 2026-04-30 20:48 | 36.38549 | -113.01368 | 32890 ft | 478 kts | 62° |
| 2026-04-30 20:48 | 36.39980 | -112.97643 | 33174 ft | 479 kts | 64° |
| 2026-04-30 20:48 | 36.41312 | -112.93848 | 33487 ft | 479 kts | 65° |
| 2026-04-30 20:49 | 36.42628 | -112.90054 | 33808 ft | 479 kts | 65° |
| 2026-04-30 20:49 | 36.43937 | -112.86301 | 34086 ft | 479 kts | 65° |
| 2026-04-30 20:49 | 36.45262 | -112.82508 | 34348 ft | 479 kts | 65° |
| 2026-04-30 20:50 | 36.47909 | -112.74917 | 34859 ft | 479 kts | 65° |
| 2026-04-30 20:50 | 36.49229 | -112.71126 | 35110 ft | 479 kts | 65° |
| 2026-04-30 20:50 | 36.50549 | -112.67329 | 35340 ft | 478 kts | 65° |
| 2026-04-30 20:50 | 36.51870 | -112.63526 | 35583 ft | 478 kts | 65° |
| 2026-04-30 20:51 | 36.53185 | -112.59732 | 35809 ft | 478 kts | 65° |
| 2026-04-30 20:51 | 36.55820 | -112.52122 | 36241 ft | 478 kts | 65° |
| 2026-04-30 20:51 | 36.57131 | -112.48328 | 36459 ft | 478 kts | 65° |
| 2026-04-30 20:52 | 36.58446 | -112.44516 | 36672 ft | 478 kts | 65° |
| 2026-04-30 20:52 | 36.59741 | -112.40758 | 36872 ft | 478 kts | 65° |
| 2026-04-30 20:53 | 36.63663 | -112.29348 | 36949 ft | 478 kts | 65° |
| 2026-04-30 20:53 | 36.66278 | -112.21717 | 36947 ft | 479 kts | 65° |
| 2026-04-30 20:54 | 36.70195 | -112.10252 | 36948 ft | 480 kts | 65° |
| 2026-04-30 20:55 | 36.74116 | -111.98728 | 36951 ft | 482 kts | 65° |
| 2026-04-30 20:55 | 36.76725 | -111.91033 | 36944 ft | 483 kts | 65° |
| 2026-04-30 20:56 | 36.80647 | -111.79434 | 36935 ft | 484 kts | 65° |
| 2026-04-30 20:57 | 36.84625 | -111.67787 | 36968 ft | 484 kts | 61° |
| 2026-04-30 20:57 | 36.86449 | -111.64361 | 36952 ft | 476 kts | 43° |
| 2026-04-30 20:57 | 36.88862 | -111.61591 | 37086 ft | 471 kts | 37° |
| 2026-04-30 20:58 | 36.96079 | -111.53006 | 37012 ft | 478 kts | 40° |
| 2026-04-30 20:58 | 37.00897 | -111.47266 | 37034 ft | 479 kts | 40° |
| 2026-04-30 20:59 | 37.08161 | -111.38697 | 36996 ft | 480 kts | 39° |
| 2026-04-30 21:00 | 37.17905 | -111.27168 | 36927 ft | 482 kts | 39° |
| 2026-04-30 21:01 | 37.22378 | -111.20895 | 36840 ft | 488 kts | 60° |
| 2026-04-30 21:01 | 37.23710 | -111.16973 | 36979 ft | 489 kts | 68° |
| 2026-04-30 21:02 | 37.27734 | -111.05109 | 36893 ft | 495 kts | 64° |
| 2026-04-30 21:02 | 37.30447 | -110.97215 | 36904 ft | 497 kts | 65° |
| 2026-04-30 21:03 | 37.33139 | -110.89207 | 36897 ft | 498 kts | 65° |
| 2026-04-30 21:03 | 37.35829 | -110.81183 | 36895 ft | 499 kts | 65° |
| 2026-04-30 21:04 | 37.38519 | -110.73137 | 36894 ft | 499 kts | 65° |
| 2026-04-30 21:04 | 37.42554 | -110.61024 | 36892 ft | 501 kts | 65° |
| 2026-04-30 21:05 | 37.45242 | -110.52929 | 36894 ft | 502 kts | 65° |
| 2026-04-30 21:05 | 37.47931 | -110.44808 | 36892 ft | 502 kts | 65° |
| 2026-04-30 21:06 | 37.50600 | -110.36725 | 36899 ft | 503 kts | 65° |
| 2026-04-30 21:06 | 37.53284 | -110.28574 | 36907 ft | 505 kts | 65° |
| 2026-04-30 21:07 | 37.55965 | -110.20406 | 36910 ft | 505 kts | 65° |
| 2026-04-30 21:07 | 37.58213 | -110.13545 | 36916 ft | 506 kts | 65° |
| 2026-04-30 21:08 | 37.60894 | -110.05334 | 36922 ft | 507 kts | 65° |
| 2026-04-30 21:08 | 37.63580 | -109.97089 | 36924 ft | 507 kts | 65° |
| 2026-04-30 21:09 | 37.66256 | -109.88847 | 36937 ft | 508 kts | 65° |
| 2026-04-30 21:09 | 37.68987 | -109.80414 | 36968 ft | 509 kts | 65° |
| 2026-04-30 21:10 | 37.71648 | -109.72176 | 36944 ft | 510 kts | 65° |
| 2026-04-30 21:10 | 37.74341 | -109.63809 | 36993 ft | 510 kts | 66° |
| 2026-04-30 21:11 | 37.77010 | -109.55496 | 36999 ft | 511 kts | 66° |
| 2026-04-30 21:11 | 37.79662 | -109.47208 | 36994 ft | 512 kts | 66° |
| 2026-04-30 21:12 | 37.82343 | -109.38813 | 36948 ft | 512 kts | 66° |
| 2026-04-30 21:12 | 37.84993 | -109.30482 | 36949 ft | 513 kts | 66° |
| 2026-04-30 21:13 | 37.87653 | -109.22096 | 36924 ft | 514 kts | 66° |
| 2026-04-30 21:13 | 37.90316 | -109.13680 | 36934 ft | 515 kts | 66° |
| 2026-04-30 21:14 | 37.92972 | -109.05257 | 36940 ft | 515 kts | 66° |
| 2026-04-30 21:14 | 37.95628 | -108.96813 | 36931 ft | 516 kts | 66° |
| 2026-04-30 21:15 | 37.98282 | -108.88345 | 36929 ft | 517 kts | 66° |
| 2026-04-30 21:15 | 38.00931 | -108.79872 | 36919 ft | 518 kts | 66° |
| 2026-04-30 21:16 | 38.03585 | -108.71356 | 36915 ft | 519 kts | 66° |
| 2026-04-30 21:16 | 38.06232 | -108.62834 | 36917 ft | 519 kts | 66° |
| 2026-04-30 21:17 | 38.08881 | -108.54283 | 36923 ft | 520 kts | 66° |
| 2026-04-30 21:17 | 38.11529 | -108.45708 | 36928 ft | 521 kts | 66° |
| 2026-04-30 21:18 | 38.14170 | -108.37128 | 36940 ft | 522 kts | 66° |
| 2026-04-30 21:18 | 38.16812 | -108.28518 | 36948 ft | 523 kts | 66° |
| 2026-04-30 21:19 | 38.19449 | -108.19899 | 36975 ft | 524 kts | 66° |
| 2026-04-30 21:19 | 38.22088 | -108.11247 | 36994 ft | 524 kts | 66° |
| 2026-04-30 21:20 | 38.24718 | -108.02593 | 36992 ft | 525 kts | 66° |
| 2026-04-30 21:20 | 38.27346 | -107.93922 | 37013 ft | 526 kts | 66° |
| 2026-04-30 21:21 | 38.29957 | -107.85281 | 37022 ft | 526 kts | 66° |
| 2026-04-30 21:22 | 38.33891 | -107.72207 | 37011 ft | 527 kts | 66° |
| 2026-04-30 21:23 | 38.39128 | -107.54709 | 36982 ft | 530 kts | 67° |
| 2026-04-30 21:23 | 38.43046 | -107.41539 | 36939 ft | 529 kts | 67° |
| 2026-04-30 21:24 | 38.45656 | -107.32734 | 36973 ft | 530 kts | 67° |
| 2026-04-30 21:24 | 38.48263 | -107.23906 | 37017 ft | 531 kts | 67° |
| 2026-04-30 21:25 | 38.52157 | -107.10673 | 37077 ft | 531 kts | 67° |
| 2026-04-30 21:26 | 38.56048 | -106.97378 | 37107 ft | 533 kts | 67° |
| 2026-04-30 21:27 | 38.59935 | -106.84035 | 37104 ft | 534 kts | 67° |
| 2026-04-30 21:27 | 38.62502 | -106.75188 | 37052 ft | 534 kts | 67° |
| 2026-04-30 21:28 | 38.66384 | -106.61749 | 36981 ft | 535 kts | 67° |
| 2026-04-30 21:29 | 38.70239 | -106.48339 | 36974 ft | 536 kts | 67° |
| 2026-04-30 21:29 | 38.74092 | -106.34861 | 37084 ft | 537 kts | 68° |
| 2026-04-30 21:30 | 38.76642 | -106.25908 | 37146 ft | 538 kts | 68° |
| 2026-04-30 21:31 | 38.83040 | -106.03305 | 37167 ft | 541 kts | 68° |
| 2026-04-30 21:32 | 38.86893 | -105.89601 | 37104 ft | 542 kts | 68° |
| 2026-04-30 21:32 | 38.89448 | -105.80470 | 37090 ft | 544 kts | 68° |
| 2026-04-30 21:33 | 38.93289 | -105.66686 | 37090 ft | 545 kts | 68° |
| 2026-04-30 21:34 | 38.95853 | -105.57441 | 37108 ft | 545 kts | 68° |
| 2026-04-30 21:34 | 38.99232 | -105.45214 | 37112 ft | 545 kts | 68° |
| 2026-04-30 21:35 | 39.01763 | -105.36013 | 37128 ft | 546 kts | 68° |
| 2026-04-30 21:35 | 39.04285 | -105.26811 | 37134 ft | 546 kts | 68° |
| 2026-04-30 21:36 | 39.06809 | -105.17574 | 37155 ft | 546 kts | 68° |
| 2026-04-30 21:37 | 39.11810 | -104.99164 | 37165 ft | 546 kts | 68° |
| 2026-04-30 21:37 | 39.14312 | -104.89905 | 37172 ft | 547 kts | 68° |
| 2026-04-30 21:38 | 39.16820 | -104.80591 | 37179 ft | 546 kts | 68° |
| 2026-04-30 21:38 | 39.19286 | -104.71397 | 37193 ft | 546 kts | 68° |
| 2026-04-30 21:39 | 39.21764 | -104.62131 | 37209 ft | 546 kts | 68° |
| 2026-04-30 21:39 | 39.24237 | -104.52854 | 37212 ft | 546 kts | 68° |
| 2026-04-30 21:40 | 39.26702 | -104.43578 | 37218 ft | 546 kts | 68° |
| 2026-04-30 21:40 | 39.29176 | -104.34232 | 37219 ft | 546 kts | 68° |
| 2026-04-30 21:41 | 39.31620 | -104.24964 | 37220 ft | 546 kts | 68° |
| 2026-04-30 21:41 | 39.34061 | -104.15678 | 37219 ft | 546 kts | 68° |
| 2026-04-30 21:42 | 39.36497 | -104.06374 | 37210 ft | 546 kts | 68° |
| 2026-04-30 21:42 | 39.38921 | -103.97085 | 37210 ft | 545 kts | 68° |
| 2026-04-30 21:43 | 39.41300 | -103.87776 | 37208 ft | 545 kts | 69° |
| 2026-04-30 21:43 | 39.43674 | -103.78541 | 37207 ft | 545 kts | 69° |
| 2026-04-30 21:44 | 39.46078 | -103.69170 | 37206 ft | 544 kts | 69° |
| 2026-04-30 21:44 | 39.48447 | -103.59893 | 37189 ft | 544 kts | 69° |
| 2026-04-30 21:45 | 39.50823 | -103.50554 | 37193 ft | 544 kts | 69° |
| 2026-04-30 21:45 | 39.53182 | -103.41248 | 37191 ft | 543 kts | 69° |
| 2026-04-30 21:46 | 39.55523 | -103.31976 | 37189 ft | 543 kts | 69° |
| 2026-04-30 21:46 | 39.57875 | -103.22628 | 37184 ft | 543 kts | 69° |
| 2026-04-30 21:47 | 39.60207 | -103.13321 | 37189 ft | 543 kts | 69° |
| 2026-04-30 21:47 | 39.62537 | -103.03986 | 37193 ft | 543 kts | 69° |
| 2026-04-30 21:48 | 39.64849 | -102.94685 | 37187 ft | 542 kts | 69° |
| 2026-04-30 21:48 | 39.67160 | -102.85356 | 37189 ft | 542 kts | 69° |
| 2026-04-30 21:49 | 39.69476 | -102.75965 | 37189 ft | 542 kts | 69° |
| 2026-04-30 21:49 | 39.71772 | -102.66624 | 37187 ft | 542 kts | 69° |
| 2026-04-30 21:50 | 39.74057 | -102.57287 | 37187 ft | 542 kts | 69° |
| 2026-04-30 21:50 | 39.76341 | -102.47922 | 37190 ft | 542 kts | 69° |
| 2026-04-30 21:51 | 39.78609 | -102.38580 | 37188 ft | 542 kts | 69° |
| 2026-04-30 21:51 | 39.80867 | -102.29246 | 37189 ft | 541 kts | 69° |
| 2026-04-30 21:52 | 39.83118 | -102.19903 | 37185 ft | 541 kts | 70° |
| 2026-04-30 21:52 | 39.85361 | -102.10557 | 37184 ft | 540 kts | 70° |
| 2026-04-30 21:53 | 39.87591 | -102.01225 | 37187 ft | 540 kts | 70° |
| 2026-04-30 21:53 | 39.89814 | -101.91885 | 37188 ft | 540 kts | 70° |
| 2026-04-30 21:54 | 39.92030 | -101.82541 | 37184 ft | 540 kts | 70° |
| 2026-04-30 21:54 | 39.94236 | -101.73197 | 37185 ft | 540 kts | 70° |
| 2026-04-30 21:55 | 39.96425 | -101.63891 | 37183 ft | 539 kts | 70° |
| 2026-04-30 21:55 | 39.98615 | -101.54540 | 37191 ft | 539 kts | 70° |
| 2026-04-30 21:56 | 40.00799 | -101.45178 | 37178 ft | 539 kts | 70° |
| 2026-04-30 21:56 | 40.02974 | -101.35816 | 37186 ft | 539 kts | 70° |
| 2026-04-30 21:57 | 40.05144 | -101.26437 | 37169 ft | 539 kts | 70° |
| 2026-04-30 21:57 | 40.07303 | -101.17070 | 37179 ft | 539 kts | 70° |
| 2026-04-30 21:58 | 40.09453 | -101.07696 | 37174 ft | 539 kts | 70° |
| 2026-04-30 21:58 | 40.11599 | -100.98307 | 37165 ft | 538 kts | 70° |
| 2026-04-30 21:59 | 40.13733 | -100.88935 | 37146 ft | 539 kts | 70° |
| 2026-04-30 22:00 | 40.16914 | -100.74904 | 37159 ft | 538 kts | 71° |
| 2026-04-30 22:00 | 40.20096 | -100.60769 | 37154 ft | 538 kts | 71° |
| 2026-04-30 22:01 | 40.21618 | -100.51149 | 37162 ft | 541 kts | 78° |
| 2026-04-30 22:01 | 40.23183 | -100.41543 | 37167 ft | 540 kts | 76° |
| 2026-04-30 22:02 | 40.24766 | -100.31952 | 37139 ft | 539 kts | 76° |
| 2026-04-30 22:02 | 40.26333 | -100.22368 | 37146 ft | 538 kts | 76° |
| 2026-04-30 22:03 | 40.27894 | -100.12767 | 37138 ft | 538 kts | 76° |
| 2026-04-30 22:03 | 40.29443 | -100.03188 | 37140 ft | 537 kts | 76° |
| 2026-04-30 22:04 | 40.30983 | -99.93609 | 37139 ft | 537 kts | 76° |
| 2026-04-30 22:05 | 40.33277 | -99.79239 | 37135 ft | 537 kts | 76° |
| 2026-04-30 22:05 | 40.34797 | -99.69652 | 37137 ft | 537 kts | 76° |
| 2026-04-30 22:06 | 40.36306 | -99.60079 | 37133 ft | 536 kts | 76° |
| 2026-04-30 22:06 | 40.38306 | -99.47307 | 37129 ft | 536 kts | 76° |
| 2026-04-30 22:07 | 40.39794 | -99.37741 | 37131 ft | 536 kts | 76° |
| 2026-04-30 22:07 | 40.41276 | -99.28164 | 37131 ft | 535 kts | 76° |
| 2026-04-30 22:08 | 40.42751 | -99.18587 | 37132 ft | 535 kts | 77° |
| 2026-04-30 22:08 | 40.43950 | -99.08939 | 37132 ft | 536 kts | 79° |
| 2026-04-30 22:09 | 40.45145 | -98.99275 | 37135 ft | 535 kts | 78° |
| 2026-04-30 22:09 | 40.46336 | -98.89640 | 37136 ft | 535 kts | 78° |
| 2026-04-30 22:10 | 40.47520 | -98.79986 | 37136 ft | 535 kts | 78° |
| 2026-04-30 22:10 | 40.48698 | -98.70321 | 37146 ft | 535 kts | 79° |
| 2026-04-30 22:11 | 40.50445 | -98.55852 | 37145 ft | 534 kts | 79° |
| 2026-04-30 22:12 | 40.51598 | -98.46213 | 37148 ft | 534 kts | 79° |
| 2026-04-30 22:12 | 40.52745 | -98.36566 | 37146 ft | 533 kts | 79° |
| 2026-04-30 22:13 | 40.53883 | -98.26914 | 37148 ft | 533 kts | 79° |
| 2026-04-30 22:13 | 40.55013 | -98.17260 | 37144 ft | 532 kts | 79° |
| 2026-04-30 22:14 | 40.56131 | -98.07635 | 37148 ft | 532 kts | 79° |
| 2026-04-30 22:14 | 40.57250 | -97.97952 | 37148 ft | 531 kts | 79° |
| 2026-04-30 22:15 | 40.58414 | -97.88366 | 37161 ft | 531 kts | 78° |
| 2026-04-30 22:15 | 40.59574 | -97.78836 | 37149 ft | 530 kts | 78° |
| 2026-04-30 22:16 | 40.60739 | -97.69197 | 37146 ft | 530 kts | 78° |
| 2026-04-30 22:17 | 40.63028 | -97.50042 | 37151 ft | 530 kts | 79° |
| 2026-04-30 22:17 | 40.64725 | -97.35660 | 37147 ft | 529 kts | 79° |
| 2026-04-30 22:18 | 40.66397 | -97.21322 | 37150 ft | 528 kts | 79° |
| 2026-04-30 22:19 | 40.68054 | -97.06970 | 37160 ft | 528 kts | 79° |
| 2026-04-30 22:20 | 40.69583 | -96.92549 | 37149 ft | 528 kts | 81° |
| 2026-04-30 22:20 | 40.70965 | -96.78134 | 37142 ft | 528 kts | 81° |
| 2026-04-30 22:21 | 40.71883 | -96.68515 | 37142 ft | 529 kts | 81° |
| 2026-04-30 22:21 | 40.72799 | -96.58834 | 37144 ft | 529 kts | 81° |
| 2026-04-30 22:22 | 40.73703 | -96.49196 | 37147 ft | 529 kts | 81° |
| 2026-04-30 22:22 | 40.74596 | -96.39584 | 37142 ft | 528 kts | 81° |
| 2026-04-30 22:23 | 40.75481 | -96.29969 | 37140 ft | 529 kts | 81° |
| 2026-04-30 22:23 | 40.76354 | -96.20396 | 37135 ft | 528 kts | 81° |
| 2026-04-30 22:24 | 40.77229 | -96.10713 | 37124 ft | 528 kts | 81° |
| 2026-04-30 22:24 | 40.78090 | -96.01097 | 37134 ft | 528 kts | 81° |
| 2026-04-30 22:25 | 40.78986 | -95.91487 | 37125 ft | 527 kts | 81° |
| 2026-04-30 22:25 | 40.79900 | -95.81898 | 37128 ft | 527 kts | 81° |
| 2026-04-30 22:26 | 40.81263 | -95.67402 | 37107 ft | 527 kts | 81° |
| 2026-04-30 22:27 | 40.82156 | -95.57806 | 37105 ft | 528 kts | 81° |
| 2026-04-30 22:27 | 40.83491 | -95.43368 | 37106 ft | 528 kts | 81° |
| 2026-04-30 22:28 | 40.84808 | -95.28938 | 37104 ft | 527 kts | 81° |
| 2026-04-30 22:29 | 40.86537 | -95.09661 | 37123 ft | 526 kts | 81° |
| 2026-04-30 22:31 | 40.88440 | -94.76042 | 37171 ft | 526 kts | 96° |
| 2026-04-30 22:32 | 40.87660 | -94.53431 | 37105 ft | 528 kts | 92° |
| 2026-04-30 22:33 | 40.86778 | -94.29119 | 37097 ft | 528 kts | 92° |
| 2026-04-30 22:35 | 40.85846 | -94.04792 | 37094 ft | 528 kts | 92° |
| 2026-04-30 22:36 | 40.84866 | -93.80546 | 37169 ft | 530 kts | 93° |
| 2026-04-30 22:37 | 40.84038 | -93.60948 | 37081 ft | 535 kts | 93° |
| 2026-04-30 22:38 | 40.83693 | -93.41274 | 37087 ft | 535 kts | 91° |
| 2026-04-30 22:39 | 40.83455 | -93.26457 | 37081 ft | 536 kts | 91° |
| 2026-04-30 22:40 | 40.82924 | -92.96900 | 37072 ft | 537 kts | 91° |
| 2026-04-30 22:41 | 40.82422 | -92.72143 | 37075 ft | 537 kts | 91° |
| 2026-04-30 22:43 | 40.81749 | -92.42476 | 37062 ft | 538 kts | 91° |
| 2026-04-30 22:44 | 40.81261 | -92.22746 | 37055 ft | 538 kts | 91° |
| 2026-04-30 22:45 | 40.80584 | -91.93039 | 37049 ft | 538 kts | 90° |
| 2026-04-30 22:47 | 40.80075 | -91.63347 | 37040 ft | 538 kts | 91° |
| 2026-04-30 22:48 | 40.79693 | -91.43526 | 37041 ft | 538 kts | 91° |
| 2026-04-30 22:49 | 40.79059 | -91.13976 | 37012 ft | 538 kts | 91° |
| 2026-04-30 22:51 | 40.78385 | -90.85787 | 37023 ft | 538 kts | 91° |
| 2026-04-30 22:52 | 40.78003 | -90.70975 | 37056 ft | 538 kts | 91° |
| 2026-04-30 22:53 | 40.77464 | -90.51238 | 37032 ft | 538 kts | 91° |
| 2026-04-30 22:53 | 40.77037 | -90.36393 | 37028 ft | 537 kts | 92° |
| 2026-04-30 22:55 | 40.76287 | -90.11804 | 37038 ft | 535 kts | 92° |
| 2026-04-30 22:56 | 40.75651 | -89.92160 | 37029 ft | 534 kts | 92° |
| 2026-04-30 22:57 | 40.74812 | -89.67692 | 37025 ft | 534 kts | 92° |
| 2026-04-30 22:58 | 40.74106 | -89.48091 | 37035 ft | 535 kts | 93° |
| 2026-04-30 22:59 | 40.72328 | -89.18684 | 37040 ft | 537 kts | 95° |